• Join FlightAware (Why Join?)
  • Login
  • US Flag 
02:17AM EDT


 

Airport Tracker/Info


-or-


 

Live Flight TrackerFlight Track Log ✈ ASQ4310 ✈ 07-May-2013 ✈ KIAH - KDSM

Flight Track Log - Related Links

Times and Time Zones

All times are in EDT time to prevent confusion due to time zone crossing. See the ASQ4310 flight status page for this flight to view local times or setup timezone preferences in your user account.

Time Position Orientation Groundspeed Altitude Reporting Facility
EDT Latitude Longitude Course Direction KTS MPH feet Rate Location/Type
08:50PM 30.2892 -95.5120 332° Northwest  Level FlightAware Approximate
08:51PM 30.3908 -95.5726 334° Northwest  Level FlightAware Approximate
08:52PM 30.4938 -95.6299 334° Northwest  Level FlightAware Approximate
08:53PM 30.5987 -95.6826 337° Northwest  Level FlightAware Approximate
08:54PM 30.7037 -95.7352 337° Northwest  Level FlightAware Approximate
08:55PM 30.8076 -95.7905 335° Northwest  Level FlightAware Approximate
08:56PM 30.9111 -95.8469 335° Northwest  Level FlightAware Approximate
08:57PM 31.0146 -95.9034 335° Northwest  Level FlightAware Approximate
08:58PM 31.1152 -95.9652 319° Northwest  Level FlightAware Approximate
08:59PM 31.2284 -95.9806 354° North  Level FlightAware Approximate
09:00PM 31.3344 -96.0169 350° North  Level FlightAware Approximate
09:01PM 31.4468 -96.0409 350° North  Level FlightAware Approximate
09:02PM 31.5592 -96.0651 350° North  Level FlightAware Approximate
09:03PM 31.6713 -96.0909 350° North  Level FlightAware Approximate
09:04PM 31.7840 -96.1135 350° North  Level FlightAware Approximate
09:05PM 31.8964 -96.1381 349° North  Level FlightAware Approximate
09:06PM 32.0080 -96.1666 346° North  Level FlightAware Approximate
09:07PM 32.1191 -96.1983 346° North  Level FlightAware Approximate
09:08PM 32.2315 -96.2167 North  Level FlightAware Approximate
09:09PM 32.3458 -96.2167 North  Level FlightAware Approximate
09:10PM 32.4601 -96.2167 North  Level FlightAware Approximate
09:11PM 32.5744 -96.2167 North  Level FlightAware Approximate
09:12PM 32.6887 -96.2167 North  Level FlightAware Approximate
09:13PM 32.8029 -96.2167 North  Level FlightAware Approximate
09:14PM 32.9172 -96.2167 North  Level FlightAware Approximate
09:15PM 33.0315 -96.2167 North  Level FlightAware Approximate
09:16PM 33.1458 -96.2167 North  Level FlightAware Approximate
09:17PM 33.2600 -96.2197 358° North  Level FlightAware Approximate
09:18PM 33.3742 -96.2254 358° North  Level FlightAware Approximate
09:19PM 33.4884 -96.2311 358° North  Level FlightAware Approximate
09:20PM 33.6020 -96.2216 North  Level FlightAware Approximate
09:21PM 33.7151 -96.2021 North  Level FlightAware Approximate
09:22PM 33.8282 -96.1826 North  Level FlightAware Approximate
09:23PM 33.9413 -96.1630 North  Level FlightAware Approximate
09:24PM 34.0545 -96.1436 North  Level FlightAware Approximate
09:25PM 34.1677 -96.1245 North  Level FlightAware Approximate
09:26PM 34.2808 -96.1053 North  Level FlightAware Approximate
09:27PM 34.3940 -96.0861 North  Level FlightAware Approximate
09:28PM 34.5072 -96.0668 North  Level FlightAware Approximate
09:29PM 34.6204 -96.0475 North  Level FlightAware Approximate
09:30PM 34.7335 -96.0281 North  Level FlightAware Approximate
09:31PM 34.8467 -96.0085 North  Level FlightAware Approximate
09:32PM 34.9598 -95.9888 North  Level FlightAware Approximate
09:33PM 35.0729 -95.9690 North  Level FlightAware Approximate
09:34PM 35.1861 -95.9492 North  Level FlightAware Approximate
09:35PM 35.2992 -95.9293 North  Level FlightAware Approximate
09:36PM 35.4123 -95.9093 North  Level FlightAware Approximate
09:37PM 35.5254 -95.8893 North  Level FlightAware Approximate
09:38PM 35.6385 -95.8692 North  Level FlightAware Approximate
09:39PM 35.7517 -95.8491 North  Level FlightAware Approximate
09:40PM 35.8648 -95.8289 North  Level FlightAware Approximate
09:41PM 35.9781 -95.8107 North  Level FlightAware Approximate
09:42PM 36.0917 -95.7956 North  Level FlightAware Approximate
09:43PM 36.2047 -95.7762 15° North  Level FlightAware Approximate
09:44PM 36.3151 -95.7395 15° North  Level FlightAware Approximate
09:45PM 36.4255 -95.7030 15° North  Level FlightAware Approximate
09:46PM 36.5361 -95.6672 15° North  Level FlightAware Approximate
09:47PM 36.6467 -95.6312 15° North  Level FlightAware Approximate
09:48PM 36.7573 -95.5952 15° North  Level FlightAware Approximate
09:49PM 36.8678 -95.5590 15° North  Level FlightAware Approximate
09:50PM 36.9784 -95.5227 15° North  Level FlightAware Approximate
09:51PM 37.0889 -95.4864 15° North  Level FlightAware Approximate
09:52PM 37.1994 -95.4499 15° North  Level FlightAware Approximate
09:53PM 37.3099 -95.4133 15° North  Level FlightAware Approximate
09:54PM 37.4192 -95.3712 18° North  Level FlightAware Approximate
09:55PM 37.5277 -95.3260 18° North  Level FlightAware Approximate
09:56PM 37.6379 -95.2884 14° North  Level FlightAware Approximate
09:57PM 37.7487 -95.2526 14° North  Level FlightAware Approximate
09:58PM 37.8594 -95.2168 14° North  Level FlightAware Approximate
09:59PM 37.9701 -95.1808 14° North  Level FlightAware Approximate
10:00PM 38.0808 -95.1447 14° North  Level FlightAware Approximate
10:01PM 38.1914 -95.1081 15° North  Level FlightAware Approximate
10:02PM 38.3016 -95.0698 15° North  Level FlightAware Approximate
10:03PM 38.4119 -95.0314 15° North  Level FlightAware Approximate
10:04PM 38.5221 -94.9928 15° North  Level FlightAware Approximate
10:05PM 38.6323 -94.9542 15° North  Level FlightAware Approximate
10:06PM 38.7425 -94.9154 15° North  Level FlightAware Approximate
10:07PM 38.8528 -94.8769 14° North  Level FlightAware Approximate
10:08PM 38.9634 -94.8402 14° North  Level FlightAware Approximate
10:09PM 39.0741 -94.8033 14° North  Level FlightAware Approximate
10:10PM 39.1847 -94.7664 15° North  Level FlightAware Approximate
10:11PM 39.2949 -94.7276 21° North  Level FlightAware Approximate
10:12PM 39.4015 -94.6743 21° North  Level FlightAware Approximate
10:13PM 39.5081 -94.6211 21° North  Level FlightAware Approximate
10:14PM 39.6148 -94.5677 21° North  Level FlightAware Approximate
10:15PM 39.7214 -94.5143 21° North  Level FlightAware Approximate
10:16PM 39.8281 -94.4610 21° North  Level FlightAware Approximate
10:17PM 39.9348 -94.4076 21° North  Level FlightAware Approximate
10:18PM 40.0415 -94.3543 21° North  Level FlightAware Approximate
10:19PM 40.1459 -94.2937 21° North  Level FlightAware Approximate
10:20PM 40.2537 -94.2438 19° North  Level FlightAware Approximate
10:21PM 40.3610 -94.1927 27° Northeast  Level FlightAware Approximate
10:22PM 40.4659 -94.1338 21° North  Level FlightAware Approximate
10:23PM 40.5728 -94.0803 21° North  Level FlightAware Approximate
10:24PM 40.6796 -94.0270 21° North  Level FlightAware Approximate
10:25PM 40.7865 -93.9734 21° North  Level FlightAware Approximate
10:26PM 40.8944 -93.9278 21° North  Level FlightAware Approximate
10:27PM 40.9975 -93.8628 27° Northeast  Level FlightAware Approximate
10:28PM 41.1047 -93.8109 18° North  Level FlightAware Approximate
10:29PM 41.2118 -93.7583 23° Northeast  Level FlightAware Approximate
10:30PM 41.3173 -93.6996 27° Northeast  Level FlightAware Approximate
10:31PM 41.4219 -93.6390 21° North  Level FlightAware Approximate
10:32PM 41.5333 -93.6500 North  Level FlightAware Approximate
10:33PM 41.5340 -93.6631 North  Level Estimated
10:34PM 41.5340 -93.6631 North  Level Estimated
10:35PM 41.5340 -93.6631 North  Level Estimated
10:36PM 41.5340 -93.6631 North  Level Estimated
10:37PM 41.5340 -93.6631 North  Level Estimated
10:38PM 41.5340 -93.6631 North  Level Estimated
10:39PM 41.5340 -93.6631 North  Level Estimated
10:40PM 41.5340 -93.6631 North  Level Estimated
10:41PM 41.5340 -93.6631 North  Level Estimated
10:42PM 41.5340 -93.6631 North  Level Estimated